Terminal Aerodrome Forecast
Issued by NWS Grand Forks, ND

Home | Current Version | Previous Version | Graphics & Text | Print | Product List | Glossary On
Versions: 1 2 3 4 5 6 7 8 9 10 11 12 13 14 15 16
846
FTUS43 KFGF 220520
TAFFAR
TAF
KFAR 220520Z 2206/2306 16009KT P6SM SCT250
     FM220800 16010KT P6SM BKN250 WS020/19040KT
     FM221300 16014KT P6SM BKN250
     FM221600 17019G27KT P6SM SCT100 BKN250
     FM222100 17022G31KT P6SM BKN070
     FM230200 16016KT P6SM BKN040
     FM230400 16016KT P6SM VCSH BKN040=

USA.gov is the U.S. government's official web portal to all federal, state and local government web resources and services.